createdAt,value
2022-08-25T00:02:35.420Z,16.41
2022-08-25T00:06:07.550Z,16.34
2022-08-25T00:09:21.468Z,16.34
2022-08-25T00:12:41.474Z,16.31
2022-08-25T00:15:49.394Z,16.33
2022-08-25T00:18:59.388Z,16.25
2022-08-25T00:22:05.913Z,16.28
2022-08-25T00:25:14.402Z,16.28
2022-08-25T00:28:19.927Z,16.25
2022-08-25T00:31:37.532Z,16.21
2022-08-25T00:34:44.386Z,16.13
2022-08-25T00:37:50.173Z,16.06
2022-08-25T00:41:06.870Z,16.05
2022-08-25T00:44:18.452Z,16.01
2022-08-25T00:47:23.926Z,16.07
2022-08-25T00:50:31.189Z,16.00
2022-08-25T00:53:37.627Z,15.98
2022-08-25T00:56:45.341Z,15.96
2022-08-25T00:59:51.078Z,15.94
2022-08-25T01:02:57.942Z,15.93
2022-08-25T01:06:04.936Z,15.91
2022-08-25T01:09:13.184Z,15.93
2022-08-25T01:12:20.775Z,15.86
2022-08-25T01:15:27.028Z,15.90
2022-08-25T01:18:45.898Z,15.81
2022-08-25T01:21:54.909Z,15.86
2022-08-25T01:25:05.486Z,15.87
2022-08-25T01:28:21.567Z,15.78
2022-08-25T01:31:39.092Z,15.71
2022-08-25T01:34:49.362Z,15.74
2022-08-25T01:37:59.547Z,15.77
2022-08-25T01:41:06.041Z,15.75
2022-08-25T01:44:15.996Z,15.76
2022-08-25T01:47:24.388Z,15.68
2022-08-25T01:50:30.233Z,15.66
2022-08-25T01:53:37.575Z,15.68
2022-08-25T01:56:43.347Z,15.70
2022-08-25T01:59:49.325Z,15.70
2022-08-25T02:02:55.665Z,15.64
2022-08-25T02:06:04.223Z,15.60
2022-08-25T02:09:14.799Z,15.59
2022-08-25T02:12:20.867Z,15.60
2022-08-25T02:15:26.309Z,15.56
2022-08-25T02:18:32.435Z,15.56
2022-08-25T02:21:38.442Z,15.55
2022-08-25T02:24:45.775Z,15.55
2022-08-25T02:27:51.121Z,15.55
2022-08-25T02:31:01.340Z,15.49
2022-08-25T02:34:07.803Z,15.47
2022-08-25T02:37:14.370Z,15.45
2022-08-25T02:40:22.423Z,15.48
2022-08-25T02:43:29.630Z,15.48
2022-08-25T02:46:34.917Z,15.47
2022-08-25T02:49:40.661Z,15.47
2022-08-25T02:52:48.738Z,15.44
2022-08-25T02:55:56.351Z,15.43
2022-08-25T02:59:02.041Z,15.44
2022-08-25T03:02:08.215Z,15.38
2022-08-25T03:05:16.462Z,15.31
2022-08-25T03:08:23.191Z,15.37
2022-08-25T03:11:31.421Z,15.39
2022-08-25T03:14:37.015Z,15.36
2022-08-25T03:17:45.638Z,15.33
2022-08-25T03:20:51.842Z,15.34
2022-08-25T03:23:58.587Z,15.36
2022-08-25T03:27:05.451Z,15.33
2022-08-25T03:30:14.830Z,15.35
2022-08-25T03:33:21.114Z,15.34
2022-08-25T03:36:27.451Z,15.30
2022-08-25T03:39:32.941Z,15.29
2022-08-25T03:42:44.973Z,15.31
2022-08-25T03:45:51.635Z,15.34
2022-08-25T03:48:57.600Z,15.37
2022-08-25T03:52:05.238Z,15.43
2022-08-25T03:55:14.909Z,15.34
2022-08-25T03:58:22.533Z,15.38
2022-08-25T04:01:28.732Z,15.37
2022-08-25T04:04:35.144Z,15.40
2022-08-25T04:07:40.898Z,15.41
2022-08-25T04:10:46.973Z,15.40
2022-08-25T04:13:54.332Z,15.41
2022-08-25T04:16:59.971Z,15.43
2022-08-25T04:20:06.883Z,15.47
2022-08-25T04:23:15.514Z,15.46
2022-08-25T04:26:28.128Z,15.47
2022-08-25T04:29:35.539Z,15.52
2022-08-25T04:32:41.046Z,15.52
2022-08-25T04:35:50.112Z,15.56
2022-08-25T04:38:55.450Z,15.56
2022-08-25T04:42:01.925Z,15.60
2022-08-25T04:45:10.347Z,15.59
2022-08-25T04:48:17.715Z,15.61
2022-08-25T04:51:25.904Z,15.68
2022-08-25T04:54:37.179Z,15.69
2022-08-25T04:57:42.569Z,15.71
2022-08-25T05:00:50.017Z,15.71
2022-08-25T05:03:59.503Z,15.76
2022-08-25T05:07:05.971Z,15.80
2022-08-25T05:10:11.720Z,15.84
2022-08-25T05:13:19.316Z,15.87
2022-08-25T05:16:28.112Z,15.92
2022-08-25T05:19:33.763Z,15.89
2022-08-25T05:22:39.126Z,15.99
2022-08-25T05:25:45.310Z,16.00
2022-08-25T05:28:52.979Z,16.07
2022-08-25T05:31:59.820Z,16.11
2022-08-25T05:35:06.470Z,16.14
2022-08-25T05:38:15.233Z,16.21
2022-08-25T05:41:23.819Z,16.23
2022-08-25T05:44:30.257Z,16.31
2022-08-25T05:47:37.228Z,16.42
2022-08-25T05:50:43.118Z,16.47
2022-08-25T05:53:51.939Z,16.56
2022-08-25T05:56:57.898Z,16.58
2022-08-25T06:00:07.309Z,16.62
2022-08-25T06:03:20.374Z,16.68
2022-08-25T06:06:26.386Z,16.71
2022-08-25T06:09:31.843Z,16.73
2022-08-25T06:12:37.582Z,16.80
2022-08-25T06:15:44.250Z,16.92
2022-08-25T06:18:53.137Z,17.02
2022-08-25T06:21:59.562Z,17.08
2022-08-25T06:25:05.328Z,17.19
2022-08-25T06:28:13.570Z,17.38
2022-08-25T06:31:20.550Z,17.55
2022-08-25T06:34:27.648Z,17.70
2022-08-25T06:37:33.679Z,17.90
2022-08-25T06:40:39.881Z,18.08
2022-08-25T06:43:49.894Z,18.25
2022-08-25T06:47:26.681Z,18.59
2022-08-25T06:50:48.519Z,19.21
2022-08-25T06:53:54.250Z,19.72
2022-08-25T06:56:59.739Z,20.72
2022-08-25T07:00:07.663Z,20.37
2022-08-25T07:03:18.006Z,20.06
2022-08-25T07:06:25.162Z,19.64
2022-08-25T07:09:31.267Z,19.62
2022-08-25T07:12:37.080Z,19.64
2022-08-25T07:15:44.302Z,19.63
2022-08-25T07:18:50.766Z,19.70
2022-08-25T07:22:26.426Z,19.68
2022-08-25T07:25:52.731Z,19.72
2022-08-25T07:28:59.827Z,19.70
2022-08-25T07:32:06.362Z,19.61
2022-08-25T07:35:19.025Z,19.60
2022-08-25T07:38:26.876Z,19.55
2022-08-25T07:41:32.958Z,19.51
2022-08-25T07:44:38.973Z,19.55
2022-08-25T07:47:46.474Z,19.53
2022-08-25T07:50:52.031Z,19.52
2022-08-25T07:53:58.949Z,19.47
2022-08-25T07:57:09.976Z,19.54
2022-08-25T08:00:17.994Z,19.53
2022-08-25T08:03:45.304Z,19.48
2022-08-25T08:06:52.589Z,19.47
2022-08-25T08:10:25.651Z,19.45
2022-08-25T08:13:26.737Z,19.47
2022-08-25T08:16:33.045Z,19.49
2022-08-25T08:19:43.115Z,19.51
2022-08-25T08:22:51.183Z,19.51
2022-08-25T08:25:58.027Z,19.59
2022-08-25T08:29:03.893Z,19.69
2022-08-25T08:32:13.400Z,19.68
2022-08-25T08:35:19.370Z,19.66
2022-08-25T08:38:27.101Z,19.72
2022-08-25T08:42:18.308Z,19.72
2022-08-25T08:45:43.862Z,19.82
2022-08-25T08:49:01.958Z,19.90
2022-08-25T08:52:09.871Z,19.90
2022-08-25T08:55:26.807Z,19.85
2022-08-25T08:58:40.639Z,19.77
2022-08-25T09:01:54.094Z,19.84
2022-08-25T09:05:02.767Z,19.86
2022-08-25T09:08:13.234Z,19.87
2022-08-25T09:11:28.535Z,19.92
2022-08-25T09:14:53.690Z,20.20
2022-08-25T09:18:09.553Z,20.10
2022-08-25T09:21:27.035Z,20.10
2022-08-25T09:24:55.939Z,20.08
2022-08-25T09:28:24.891Z,20.15
2022-08-25T09:31:38.817Z,20.13
2022-08-25T09:34:45.475Z,20.27
2022-08-25T09:37:59.464Z,20.29
2022-08-25T09:41:06.518Z,20.28
2022-08-25T09:44:24.590Z,20.34
2022-08-25T09:47:48.145Z,20.49
2022-08-25T09:51:22.007Z,20.54
2022-08-25T09:54:43.869Z,20.60
2022-08-25T09:57:52.822Z,20.61
2022-08-25T10:01:14.311Z,20.68
2022-08-25T10:04:32.762Z,20.76
2022-08-25T10:07:41.441Z,20.70
2022-08-25T10:10:47.935Z,20.76
2022-08-25T10:14:06.978Z,20.83
2022-08-25T10:17:30.526Z,20.86
2022-08-25T10:21:11.775Z,20.88
2022-08-25T10:24:24.870Z,20.90
2022-08-25T10:28:12.439Z,20.98
2022-08-25T10:31:24.947Z,21.09
2022-08-25T10:34:51.858Z,21.11
2022-08-25T10:38:36.273Z,21.20
2022-08-25T10:41:53.348Z,21.29
2022-08-25T10:45:38.750Z,21.28
2022-08-25T10:48:59.508Z,21.37
2022-08-25T10:52:09.142Z,21.32
2022-08-25T10:55:21.587Z,21.46
2022-08-25T10:58:43.541Z,21.44
2022-08-25T11:02:11.413Z,21.46
2022-08-25T11:05:27.507Z,21.47
2022-08-25T11:08:37.176Z,21.55
2022-08-25T11:12:02.952Z,21.63
2022-08-25T11:15:22.961Z,21.63
2022-08-25T11:18:55.490Z,21.68
2022-08-25T11:22:28.395Z,21.76
2022-08-25T11:25:38.895Z,21.87
2022-08-25T11:29:06.185Z,21.91
2022-08-25T11:32:20.742Z,21.98
2022-08-25T11:35:30.806Z,21.99
2022-08-25T11:39:15.502Z,22.07
2022-08-25T11:42:31.953Z,22.15
2022-08-25T11:46:05.416Z,22.17
2022-08-25T11:49:41.179Z,22.27
2022-08-25T11:52:56.211Z,22.32
2022-08-25T11:56:05.704Z,22.35
2022-08-25T12:00:09.798Z,22.37
2022-08-25T12:04:15.009Z,22.35
2022-08-25T12:07:30.746Z,22.46
2022-08-25T12:11:11.894Z,22.60
2022-08-25T12:14:44.594Z,22.66
2022-08-25T12:18:12.684Z,22.60
2022-08-25T12:21:34.175Z,22.62
2022-08-25T12:24:51.909Z,22.71
2022-08-25T12:28:09.249Z,22.74
2022-08-25T12:31:30.169Z,22.78
2022-08-25T12:35:29.615Z,22.77
2022-08-25T12:38:43.664Z,22.80
2022-08-25T12:45:18.985Z,22.85
2022-08-25T12:49:00.465Z,22.92
2022-08-25T12:52:09.379Z,22.90
2022-08-25T12:55:18.717Z,22.87
2022-08-25T12:58:38.608Z,22.96
2022-08-25T13:02:39.047Z,22.97
2022-08-25T13:06:38.845Z,23.05
2022-08-25T13:10:13.311Z,23.15
2022-08-25T13:13:32.751Z,23.14
2022-08-25T13:16:38.469Z,23.17
2022-08-25T13:19:43.834Z,23.20
2022-08-25T13:22:56.709Z,23.18
2022-08-25T13:26:02.693Z,23.28
2022-08-25T13:29:18.361Z,23.29
2022-08-25T13:32:32.358Z,23.39
2022-08-25T13:35:40.852Z,23.43
2022-08-25T13:38:49.297Z,23.32
2022-08-25T13:41:58.622Z,23.41
2022-08-25T13:45:17.094Z,23.43
2022-08-25T13:48:37.978Z,23.51
2022-08-25T13:51:54.683Z,23.50
2022-08-25T13:55:01.827Z,23.50
2022-08-25T13:58:17.028Z,23.47
2022-08-25T14:01:48.458Z,23.40
2022-08-25T14:04:55.234Z,23.45
2022-08-25T14:08:16.259Z,23.41
2022-08-25T14:11:32.030Z,23.49
2022-08-25T14:14:37.376Z,23.50
2022-08-25T14:17:48.435Z,23.50
2022-08-25T14:20:56.363Z,23.50
2022-08-25T14:24:01.851Z,23.46
2022-08-25T14:27:07.507Z,23.35
2022-08-25T14:30:17.670Z,23.39
2022-08-25T14:33:40.079Z,23.43
2022-08-25T14:36:46.034Z,23.39
2022-08-25T14:39:52.561Z,23.40
2022-08-25T14:42:59.538Z,23.41
2022-08-25T14:46:15.802Z,23.42
2022-08-25T14:49:27.161Z,23.34
2022-08-25T14:52:33.046Z,23.33
2022-08-25T14:55:40.096Z,23.37
2022-08-25T14:58:51.237Z,23.31
2022-08-25T15:01:58.682Z,23.28
2022-08-25T15:05:08.624Z,23.30
2022-08-25T15:08:33.652Z,23.28
2022-08-25T15:11:42.379Z,23.25
2022-08-25T15:14:47.908Z,23.25
2022-08-25T15:17:54.401Z,23.26
2022-08-25T15:21:04.179Z,23.32
2022-08-25T15:24:11.352Z,23.24
2022-08-25T15:27:19.870Z,23.30
2022-08-25T15:30:30.779Z,23.27
2022-08-25T15:33:37.060Z,23.22
2022-08-25T15:36:44.111Z,23.08
2022-08-25T15:39:49.609Z,23.08
2022-08-25T15:42:55.437Z,23.10
2022-08-25T15:46:01.579Z,23.07
2022-08-25T15:49:07.943Z,23.00
2022-08-25T15:52:15.433Z,23.04
2022-08-25T15:55:21.290Z,23.01
2022-08-25T15:58:27.252Z,22.96
2022-08-25T16:01:32.818Z,22.97
2022-08-25T16:04:38.054Z,22.89
2022-08-25T16:07:51.771Z,22.88
2022-08-25T16:10:58.507Z,22.79
2022-08-25T16:14:04.062Z,22.82
2022-08-25T16:17:10.830Z,22.82
2022-08-25T16:20:18.293Z,22.76
2022-08-25T16:23:25.220Z,22.68
2022-08-25T16:26:31.572Z,22.67
2022-08-25T16:29:37.842Z,22.60
2022-08-25T16:32:43.237Z,22.59
2022-08-25T16:35:49.263Z,22.64
2022-08-25T16:38:57.452Z,22.60
2022-08-25T16:42:03.127Z,22.54
2022-08-25T16:45:12.365Z,22.58
2022-08-25T16:48:18.667Z,22.53
2022-08-25T16:51:25.566Z,22.50
2022-08-25T16:54:53.784Z,22.45
2022-08-25T16:58:01.076Z,22.31
2022-08-25T17:01:13.720Z,22.37
2022-08-25T17:04:19.205Z,22.31
2022-08-25T17:07:24.495Z,22.29
2022-08-25T17:10:31.746Z,22.24
2022-08-25T17:13:38.192Z,22.16
2022-08-25T17:16:44.250Z,22.06
2022-08-25T17:19:53.420Z,21.91
2022-08-25T17:23:00.659Z,21.81
2022-08-25T17:26:12.997Z,21.84
2022-08-25T17:29:20.360Z,21.69
2022-08-25T17:32:28.968Z,21.66
2022-08-25T17:35:40.562Z,21.57
2022-08-25T17:38:46.388Z,21.43
2022-08-25T17:41:53.518Z,21.45
2022-08-25T17:44:59.051Z,21.44
2022-08-25T17:48:06.359Z,21.34
2022-08-25T17:51:16.335Z,21.21
2022-08-25T17:54:21.679Z,21.17
2022-08-25T17:57:28.453Z,21.07
2022-08-25T18:00:34.359Z,20.99
2022-08-25T18:03:40.490Z,21.01
2022-08-25T18:06:48.730Z,20.89
2022-08-25T18:09:54.665Z,20.84
2022-08-25T18:13:02.319Z,20.79
2022-08-25T18:16:09.759Z,20.67
2022-08-25T18:19:16.470Z,20.70
2022-08-25T18:22:22.070Z,20.70
2022-08-25T18:25:28.512Z,20.64
2022-08-25T18:28:36.233Z,20.58
2022-08-25T18:31:42.644Z,20.59
2022-08-25T18:34:48.220Z,20.43
2022-08-25T18:38:11.330Z,20.44
2022-08-25T18:41:18.505Z,20.44
2022-08-25T18:44:26.310Z,20.39
2022-08-25T18:47:31.621Z,20.21
2022-08-25T18:50:41.686Z,20.15
2022-08-25T18:53:50.183Z,20.14
2022-08-25T18:56:56.425Z,20.04
2022-08-25T19:00:06.951Z,20.00
2022-08-25T19:03:18.299Z,19.85
2022-08-25T19:06:24.059Z,19.88
2022-08-25T19:09:30.599Z,19.79
2022-08-25T19:12:36.827Z,19.68
2022-08-25T19:15:45.625Z,19.69
2022-08-25T19:18:52.291Z,19.72
2022-08-25T19:21:58.175Z,19.61
2022-08-25T19:25:05.548Z,19.49
2022-08-25T19:28:14.541Z,19.53
2022-08-25T19:31:27.534Z,19.52
2022-08-25T19:34:42.745Z,19.48
2022-08-25T19:37:48.182Z,19.36
2022-08-25T19:40:56.079Z,19.35
2022-08-25T19:44:02.877Z,19.21
2022-08-25T19:47:13.221Z,19.21
2022-08-25T19:50:19.850Z,19.14
2022-08-25T19:53:25.070Z,19.18
2022-08-25T19:56:32.517Z,19.14
2022-08-25T19:59:43.434Z,19.14
2022-08-25T20:02:51.036Z,19.12
2022-08-25T20:05:56.992Z,19.11
2022-08-25T20:09:07.242Z,19.15
2022-08-25T20:12:28.119Z,19.11
2022-08-25T20:15:34.629Z,19.09
2022-08-25T20:18:45.609Z,18.96
2022-08-25T20:21:51.429Z,18.87
2022-08-25T20:25:00.586Z,18.70
2022-08-25T20:28:05.822Z,18.75
2022-08-25T20:31:18.192Z,18.72
2022-08-25T20:34:26.781Z,18.62
2022-08-25T20:37:33.884Z,18.63
2022-08-25T20:40:42.169Z,18.59
2022-08-25T20:43:49.179Z,18.54
2022-08-25T20:46:54.794Z,18.47
2022-08-25T20:50:06.407Z,18.44
2022-08-25T20:53:13.501Z,18.39
2022-08-25T20:56:20.497Z,18.35
2022-08-25T20:59:28.913Z,18.34
2022-08-25T21:02:34.302Z,18.28
2022-08-25T21:05:42.789Z,18.15
2022-08-25T21:08:48.107Z,18.14
2022-08-25T21:11:55.820Z,18.14
2022-08-25T21:15:02.249Z,18.11
2022-08-25T21:18:08.410Z,18.14
2022-08-25T21:21:18.475Z,18.01
2022-08-25T21:24:24.296Z,18.04
2022-08-25T21:27:29.912Z,17.90
2022-08-25T21:30:35.336Z,17.93
2022-08-25T21:33:41.650Z,17.92
2022-08-25T21:36:49.402Z,17.88
2022-08-25T21:39:54.862Z,17.84
2022-08-25T21:43:00.146Z,17.84
2022-08-25T21:46:07.745Z,17.85
2022-08-25T21:49:13.523Z,17.82
2022-08-25T21:52:21.529Z,17.81
2022-08-25T21:55:27.125Z,17.81
2022-08-25T21:58:33.611Z,17.72
2022-08-25T22:01:39.557Z,17.68
2022-08-25T22:04:47.063Z,17.64
2022-08-25T22:07:55.803Z,17.60
2022-08-25T22:11:01.960Z,17.55
2022-08-25T22:14:07.739Z,17.54
2022-08-25T22:17:16.784Z,17.53
2022-08-25T22:20:22.742Z,17.48
2022-08-25T22:23:29.550Z,17.30
2022-08-25T22:26:39.539Z,17.36
2022-08-25T22:29:44.971Z,17.38
2022-08-25T22:32:50.283Z,17.41
2022-08-25T22:35:59.926Z,17.48
2022-08-25T22:39:09.690Z,17.33
2022-08-25T22:42:15.392Z,17.23
2022-08-25T22:45:21.389Z,17.19
2022-08-25T22:48:26.752Z,17.09
2022-08-25T22:51:32.395Z,17.12
2022-08-25T22:54:41.229Z,17.14
2022-08-25T22:57:46.652Z,17.16
2022-08-25T23:00:51.985Z,17.16
2022-08-25T23:03:58.282Z,17.14
2022-08-25T23:07:04.078Z,17.03
2022-08-25T23:10:14.099Z,16.99
2022-08-25T23:13:33.987Z,16.98
2022-08-25T23:16:41.983Z,17.02
2022-08-25T23:19:47.509Z,17.10
2022-08-25T23:22:53.584Z,17.05
2022-08-25T23:26:00.291Z,17.01
2022-08-25T23:29:07.811Z,17.01
2022-08-25T23:32:25.627Z,16.98
2022-08-25T23:35:33.594Z,16.89
2022-08-25T23:38:39.795Z,16.92
2022-08-25T23:41:47.125Z,16.91
2022-08-25T23:44:52.573Z,16.91
2022-08-25T23:47:57.830Z,16.85
2022-08-25T23:51:03.263Z,16.88
2022-08-25T23:54:11.876Z,16.89
2022-08-25T23:57:18.763Z,16.84
